Time;durP1;ratioP1;P1;durP2;ratioP2;P2;SDS_P1;SDS_P2;PMS_P1;PMS_P2;Temp;Humidity;BMP_temperature;BMP_pressure;BME280_temperature;BME280_humidity;BME280_pressure;Samples;Min_cycle;Max_cycle;Signal;HPM_P1;HPM_P2
2022/01/16 00:04:15;;;;;;;;;;;;;;;;;;;;;
2022/01/16 00:05:00;;;;;;;;;50.50;42.75;;;;;5.21;55.97;102191.69;5057690;27;45616;-71
2022/01/16 00:07:55;;;;;;;;;;;;;;;;;;;;;
2022/01/16 00:10:35;;;;;;;;;;;;;;;;;;;;;
2022/01/16 00:13:23;;;;;;;;;;;;;;;;;;;;;
2022/01/16 00:16:23;;;;;;;;;;;;;;;;;;;;;
2022/01/16 00:19:27;;;;;;;;;;;;;;;;;;;;;
2022/01/16 00:22:05;;;;;;;;;;;;;;;;;;;;;
2022/01/16 00:24:57;;;;;;;;;51.75;45.00;;;;;5.16;56.89;102199.59;5072238;28;68818;-71
2022/01/16 00:30:37;;;;;;;;;;;;;;;;;;;;;
2022/01/16 00:33:48;;;;;;;;;53.00;43.50;;;;;5.13;56.87;102233.09;5061613;28;71951;-71
2022/01/16 00:36:35;;;;;;;;;45.75;41.50;;;;;5.38;56.69;102274.91;5057969;28;45534;-71
2022/01/16 00:39:14;;;;;;;;;;;;;;;;;;;;;
2022/01/16 00:41:46;;;;;;;;;41.25;38.00;;;;;5.10;57.06;102196.84;5063879;28;73910;-71
2022/01/16 00:44:36;;;;;;;;;;;;;;;;;;;;;
2022/01/16 00:47:14;;;;;;;;;;;;;;;;;;;;;
2022/01/16 00:50:33;;;;;;;;;;;;;;;;;;;;;
2022/01/16 00:53:18;;;;;;;;;48.25;36.00;;;;;5.30;56.31;102246.53;5070630;28;74451;-71
2022/01/16 00:55:51;;;;;;;;;50.00;41.25;;;;;5.26;56.78;102252.66;5077600;27;45271;-72
2022/01/16 00:58:21;;;;;;;;;48.25;38.50;;;;;5.10;56.35;102225.97;5061698;28;45356;-72
2022/01/16 01:01:18;;;;;;;;;42.75;36.75;;;;;5.29;56.40;102277.41;5076301;28;45422;-72
2022/01/16 01:03:57;;;;;;;;;;;;;;;;;;;;;
2022/01/16 01:06:51;;;;;;;;;;;;;;;;;;;;;
2022/01/16 01:09:40;;;;;;;;;52.00;39.75;;;;;5.12;57.19;102289.53;5082318;28;69009;-71
2022/01/16 01:12:43;;;;;;;;;;;;;;;;;;;;;
2022/01/16 01:15:29;;;;;;;;;;;;;;;;;;;;;
2022/01/16 01:18:35;;;;;;;;;36.50;34.75;;;;;4.93;56.97;102291.00;5073071;28;71521;-72
2022/01/16 01:21:15;;;;;;;;;;;;;;;;;;;;;
2022/01/16 01:23:53;;;;;;;;;;;;;;;;;;;;;
2022/01/16 01:26:53;;;;;;;;;;;;;;;;;;;;;
2022/01/16 01:29:39;;;;;;;;;;;;;;;;;;;;;
2022/01/16 01:32:12;;;;;;;;;46.75;39.50;;;;;4.97;56.90;102155.22;5061401;28;68033;-71
2022/01/16 01:35:04;;;;;;;;;;;;;;;;;;;;;
2022/01/16 01:37:57;;;;;;;;;;;;;;;;;;;;;
2022/01/16 01:40:59;;;;;;;;;;;;;;;;;;;;;
2022/01/16 01:52:21;;;;;;;;;;;;;;;;;;;;;
2022/01/16 01:55:17;;;;;;;;;;;;;;;;;;;;;
2022/01/16 01:57:57;;;;;;;;;;;;;;;;;;;;;
2022/01/16 02:00:53;;;;;;;;;;;;;;;;;;;;;
2022/01/16 02:06:35;;;;;;;;;53.00;42.25;;;;;4.99;57.02;102309.59;5072018;28;45328;-71
2022/01/16 02:09:21;;;;;;;;;;;;;;;;;;;;;
2022/01/16 02:35:56;;;;;;;;;53.25;42.50;;;;;4.85;57.70;102305.88;5059005;28;45989;-71
2022/01/16 02:39:12;;;;;;;;;;;;;;;;;;;;;
2022/01/16 02:42:26;;;;;;;;;56.25;43.50;;;;;5.16;57.59;102337.25;5060284;28;69472;-71
2022/01/16 02:45:32;;;;;;;;;55.75;42.25;;;;;4.95;56.93;102282.22;5059901;28;45747;-71
2022/01/16 02:48:13;;;;;;;;;;;;;;;;;;;;;
2022/01/16 02:50:59;;;;;;;;;55.50;45.00;;;;;4.83;57.29;102260.88;5077023;28;73347;-71
2022/01/16 02:53:33;;;;;;;;;60.50;45.50;;;;;4.96;57.53;102275.16;5060523;28;45449;-72
2022/01/16 02:56:08;;;;;;;;;58.50;46.75;;;;;5.14;57.10;102315.13;5069274;27;45328;-71
2022/01/16 02:58:44;;;;;;;;;51.75;39.75;;;;;4.97;57.47;102296.34;5079865;27;45843;-71
2022/01/16 03:01:13;;;;;;;;;56.50;43.75;;;;;5.10;57.46;102299.22;5067137;28;45848;-71
2022/01/16 03:03:56;;;;;;;;;64.00;46.25;;;;;4.83;57.88;102261.75;5066453;28;45670;-71
2022/01/16 03:06:55;;;;;;;;;;;;;;;;;;;;;
2022/01/16 03:09:37;;;;;;;;;50.50;44.00;;;;;4.84;57.42;102257.34;5059921;28;75234;-71
2022/01/16 03:12:36;;;;;;;;;;;;;;;;;;;;;
2022/01/16 03:15:16;;;;;;;;;;;;;;;;;;;;;
2022/01/16 03:23:51;;;;;;;;;;;;;;;;;;;;;
2022/01/16 03:26:37;;;;;;;;;;;;;;;;;;;;;
2022/01/16 03:29:16;;;;;;;;;;;;;;;;;;;;;
2022/01/16 03:31:50;;;;;;;;;57.25;40.00;;;;;4.75;58.38;102244.84;5059301;28;74433;-71
2022/01/16 03:34:30;;;;;;;;;;;;;;;;;;;;;
2022/01/16 03:37:26;;;;;;;;;;;;;;;;;;;;;
2022/01/16 03:40:12;;;;;;;;;60.50;47.75;;;;;4.90;57.84;102273.31;5059070;28;73196;-71
2022/01/16 03:43:14;;;;;;;;;55.25;45.50;;;;;4.81;58.52;102275.81;5060215;28;45842;-71
2022/01/16 03:46:16;;;;;;;;;;;;;;;;;;;;;
2022/01/16 03:49:18;;;;;;;;;;;;;;;;;;;;;
2022/01/16 03:51:50;;;;;;;;;53.00;42.75;;;;;4.61;58.58;102244.66;5058728;28;72768;-71
2022/01/16 03:54:35;;;;;;;;;;;;;;;;;;;;;
2022/01/16 03:57:38;;;;;;;;;60.75;46.50;;;;;4.69;58.51;102259.75;5075641;28;71789;-71
2022/01/16 04:00:35;;;;;;;;;;;;;;;;;;;;;
2022/01/16 04:03:16;;;;;;;;;;;;;;;;;;;;;
2022/01/16 04:06:21;;;;;;;;;;;;;;;;;;;;;
2022/01/16 04:09:03;;;;;;;;;;;;;;;;;;;;;
2022/01/16 04:12:04;;;;;;;;;55.00;36.25;;;;;4.39;58.27;102230.19;5058792;28;68835;-71
2022/01/16 04:17:45;;;;;;;;;64.75;48.25;;;;;4.64;58.61;102288.75;5066581;28;45441;-71
2022/01/16 04:20:20;;;;;;;;;60.25;43.50;;;;;4.47;58.40;102253.22;5071776;28;45799;-71
2022/01/16 04:22:51;;;;;;;;;60.75;48.50;;;;;4.61;58.04;102301.91;5058399;28;45323;-71
2022/01/16 04:25:40;;;;;;;;;52.50;42.75;;;;;4.54;59.22;102285.06;5058015;28;45631;-71
2022/01/16 04:28:25;;;;;;;;;;;;;;;;;;;;;
2022/01/16 04:31:34;;;;;;;;;;;;;;;;;;;;;
2022/01/16 04:34:00;;;;;;;;;52.00;43.25;;;;;4.33;58.80;102271.50;5058561;28;68974;-71
2022/01/16 04:36:28;;;;;;;;;50.25;42.25;;;;;4.41;59.09;102293.63;5071180;28;45582;-71
2022/01/16 04:39:15;;;;;;;;;58.00;45.25;;;;;4.68;58.95;102339.94;5067198;28;48312;-71
2022/01/16 04:44:54;;;;;;;;;;;;;;;;;;;;;
2022/01/16 04:47:30;;;;;;;;;;;;;;;;;;;;;
2022/01/16 04:50:11;;;;;;;;;;;;;;;;;;;;;
2022/01/16 04:52:44;;;;;;;;;59.50;45.75;;;;;4.47;59.19;102335.19;5059435;28;72766;-71
2022/01/16 04:55:29;;;;;;;;;;;;;;;;;;;;;
2022/01/16 04:58:22;;;;;;;;;53.25;44.50;;;;;4.42;58.58;102306.88;5058382;28;72903;-71
2022/01/16 05:00:48;;;;;;;;;56.25;45.25;;;;;4.69;58.98;102354.97;5059186;28;45386;-71
2022/01/16 05:03:51;;;;;;;;;;;;;;;;;;;;;
2022/01/16 05:06:32;;;;;;;;;;;;;;;;;;;;;
2022/01/16 05:09:08;;;;;;;;;59.00;47.00;;;;;4.52;59.79;102336.16;5057852;28;73292;-71
2022/01/16 05:11:45;;;;;;;;;50.50;42.00;;;;;4.53;58.85;102338.84;5070914;28;48689;-71
2022/01/16 05:16:59;;;;;;;;;58.25;44.25;;;;;4.78;59.32;102374.56;5061765;28;45425;-71
2022/01/16 05:19:41;;;;;;;;;54.50;42.75;;;;;4.58;58.92;102339.81;5082456;28;45242;-71
2022/01/16 05:22:11;;;;;;;;;62.25;45.25;;;;;4.88;59.50;102390.56;5062718;28;45705;-72
2022/01/16 05:24:44;;;;;;;;;56.25;43.50;;;;;4.58;59.20;102342.44;5069221;28;45762;-71
2022/01/16 05:27:24;;;;;;;;;;;;;;;;;;;;;
2022/01/16 05:30:11;;;;;;;;;;;;;;;;;;;;;
2022/01/16 05:33:19;;;;;;;;;;;;;;;;;;;;;
2022/01/16 05:36:13;;;;;;;;;;;;;;;;;;;;;
2022/01/16 05:38:54;;;;;;;;;45.50;41.75;;;;;4.52;59.29;102344.97;5071569;28;67439;-71
2022/01/16 05:41:22;;;;;;;;;49.50;39.75;;;;;4.90;59.04;102421.50;5080679;27;45459;-71
2022/01/16 05:46:51;;;;;;;;;;;;;;;;;;;;;
2022/01/16 05:49:56;;;;;;;;;;;;;;;;;;;;;
2022/01/16 05:55:30;;;;;;;;;;;;;;;;;;;;;
2022/01/16 05:58:09;;;;;;;;;51.75;40.75;;;;;4.96;60.28;102429.56;5061014;28;71487;-71
2022/01/16 06:00:48;;;;;;;;;;;;;;;;;;;;;
2022/01/16 06:03:37;;;;;;;;;;;;;;;;;;;;;
2022/01/16 06:06:20;;;;;;;;;46.25;39.00;;;;;4.72;59.97;102395.59;5066909;28;75154;-71
2022/01/16 06:09:19;;;;;;;;;;;;;;;;;;;;;
2022/01/16 06:11:59;;;;;;;;;;;;;;;;;;;;;
2022/01/16 06:14:47;;;;;;;;;51.50;36.75;;;;;4.59;60.37;102368.06;5060881;28;71592;-71
2022/01/16 06:17:22;;;;;;;;;49.00;39.75;;;;;4.60;60.69;102400.66;5074712;27;46606;-71
2022/01/16 06:20:18;;;;;;;;;;;;;;;;;;;;;
2022/01/16 06:22:54;;;;;;;;;42.00;37.25;;;;;4.68;60.54;102420.22;5060738;28;68815;-71
2022/01/16 06:25:23;;;;;;;;;42.75;37.50;;;;;4.62;60.54;102405.09;5067396;28;45460;-71
2022/01/16 06:28:20;;;;;;;;;43.75;33.50;;;;;4.86;60.88;102447.88;5080380;27;48127;-71
2022/01/16 06:30:58;;;;;;;;;42.00;30.25;;;;;4.70;60.60;102426.44;5067648;28;45337;-71
2022/01/16 06:33:34;;;;;;;;;;;;;;;;;;;;;
2022/01/16 06:36:25;;;;;;;;;33.50;27.50;;;;;4.78;60.53;102432.75;5065461;28;72869;-71
2022/01/16 06:39:43;;;;;;;;;;;;;;;;;;;;;
2022/01/16 06:42:25;;;;;;;;;;;;;;;;;;;;;
2022/01/16 06:45:24;;;;;;;;;37.75;30.25;;;;;5.01;60.07;102464.03;5060675;28;68826;-71
2022/01/16 06:51:18;;;;;;;;;;;;;;;;;;;;;
2022/01/16 06:53:57;;;;;;;;;;;;;;;;;;;;;
2022/01/16 06:56:45;;;;;;;;;33.00;28.50;;;;;4.82;60.86;102462.81;5066108;28;67773;-71
2022/01/16 06:59:41;;;;;;;;;;;;;;;;;;;;;
2022/01/16 07:02:16;;;;;;;;;29.25;23.75;;;;;4.42;61.44;102402.09;5058043;28;76230;-71
2022/01/16 07:05:04;;;;;;;;;;;;;;;;;;;;;
2022/01/16 07:08:00;;;;;;;;;;;;;;;;;;;;;
2022/01/16 07:14:42;;;;;;;;;;;;;;;;;;;;;
2022/01/16 07:17:28;;;;;;;;;24.50;21.00;;;;;4.88;60.98;102493.78;5062708;28;73402;-71
2022/01/16 07:20:17;;;;;;;;;36.50;28.25;;;;;4.73;60.78;102489.97;5060582;28;45267;-71
2022/01/16 07:23:35;;;;;;;;;;;;;;;;;;;;;
2022/01/16 07:26:24;;;;;;;;;;;;;;;;;;;;;
2022/01/16 07:31:59;;;;;;;;;;;;;;;;;;;;;
2022/01/16 07:37:39;;;;;;;;;28.50;23.50;;;;;4.81;61.93;102485.75;5070792;28;45674;-71
2022/01/16 07:40:24;;;;;;;;;;;;;;;;;;;;;
2022/01/16 07:43:20;;;;;;;;;;;;;;;;;;;;;
2022/01/16 07:46:06;;;;;;;;;;;;;;;;;;;;;
2022/01/16 07:49:06;;;;;;;;;;;;;;;;;;;;;
2022/01/16 07:51:45;;;;;;;;;;;;;;;;;;;;;
2022/01/16 07:54:30;;;;;;;;;36.75;27.25;;;;;4.70;62.18;102476.69;5058934;28;68967;-71
2022/01/16 07:57:30;;;;;;;;;24.75;22.25;;;;;4.96;61.94;102510.69;5074840;28;46012;-71
2022/01/16 08:00:01;;;;;;;;;29.00;21.75;;;;;4.99;61.83;102509.03;5069280;28;48536;-71
2022/01/16 08:02:39;;;;;;;;;28.75;26.25;;;;;5.09;62.27;102511.81;5075299;28;45847;-71
2022/01/16 08:05:18;;;;;;;;;;;;;;;;;;;;;
2022/01/16 08:08:03;;;;;;;;;27.50;21.75;;;;;4.81;62.62;102474.25;5059001;28;72868;-71
2022/01/16 08:10:49;;;;;;;;;36.25;29.75;;;;;4.92;62.26;102487.69;5071931;28;46277;-71
2022/01/16 08:13:23;;;;;;;;;30.75;24.00;;;;;4.85;62.44;102478.75;5075890;28;45774;-71
2022/01/16 08:16:00;;;;;;;;;34.50;25.00;;;;;4.80;62.76;102473.34;5077965;27;45371;-71
2022/01/16 08:18:46;;;;;;;;;32.75;29.50;;;;;4.57;61.49;102456.16;5072178;28;45350;-71
2022/01/16 08:21:39;;;;;;;;;33.25;25.25;;;;;4.81;62.35;102493.69;5067700;28;46715;-71
2022/01/16 08:47:48;;;;;;;;;27.50;21.50;;;;;4.88;62.23;102472.59;5034160;28;47230;-73
2022/01/16 08:50:15;;;;;;;;;40.50;30.25;;;;;5.20;62.38;102531.44;5035277;28;45312;-73
2022/01/16 08:52:40;;;;;;;;;30.75;26.50;;;;;5.08;62.79;102515.31;5018769;28;45193;-73
2022/01/16 08:55:08;;;;;;;;;27.25;25.00;;;;;5.31;61.77;102542.22;5022156;28;45637;-73
2022/01/16 08:57:34;;;;;;;;;29.25;25.75;;;;;5.07;62.57;102503.84;5021382;28;45335;-73
2022/01/16 08:59:59;;;;;;;;;38.75;32.25;;;;;5.14;62.86;102523.38;5020867;28;45945;-73
2022/01/16 09:02:24;;;;;;;;;27.00;22.25;;;;;5.06;61.89;102501.19;5019740;28;45486;-72
2022/01/16 09:04:50;;;;;;;;;27.75;24.25;;;;;5.15;63.21;102510.19;5021292;28;45519;-73
2022/01/16 09:07:17;;;;;;;;;32.25;27.00;;;;;5.08;62.64;102491.50;5022628;28;46610;-73
2022/01/16 09:09:42;;;;;;;;;24.75;22.75;;;;;5.18;62.45;102517.31;5022371;28;45667;-72
2022/01/16 09:12:08;;;;;;;;;31.00;26.50;;;;;5.32;62.49;102544.91;5038143;28;45395;-73
2022/01/16 09:14:34;;;;;;;;;34.75;26.50;;;;;5.27;62.18;102532.47;5022040;28;45478;-73
2022/01/16 09:16:59;;;;;;;;;27.75;24.50;;;;;5.28;62.69;102527.19;5020751;28;48256;-74
2022/01/16 09:19:25;;;;;;;;;33.25;29.50;;;;;5.57;62.39;102577.13;5018213;28;45242;-74
2022/01/16 09:21:50;;;;;;;;;29.75;25.00;;;;;5.39;62.17;102553.84;5021550;28;45450;-75
2022/01/16 09:24:15;;;;;;;;;25.25;22.50;;;;;5.59;62.48;102586.00;5021072;28;45311;-77
2022/01/16 09:26:41;;;;;;;;;36.50;25.25;;;;;5.56;62.14;102575.34;5020506;28;46383;-76
2022/01/16 09:29:06;;;;;;;;;28.75;25.00;;;;;5.41;61.60;102544.19;5020202;28;45399;-75
2022/01/16 09:31:32;;;;;;;;;24.25;23.50;;;;;5.55;62.46;102569.16;5018442;28;45597;-68
2022/01/16 09:33:59;;;;;;;;;24.00;23.75;;;;;5.51;62.02;102569.06;5015117;28;45480;-70
2022/01/16 09:36:25;;;;;;;;;26.75;22.25;;;;;5.59;62.49;102587.75;5017902;28;47209;-68
2022/01/16 09:38:50;;;;;;;;;29.00;24.00;;;;;5.59;62.29;102599.25;5015544;28;45367;-70
2022/01/16 09:41:16;;;;;;;;;27.25;21.00;;;;;5.62;62.65;102596.66;5011741;28;45774;-70
2022/01/16 09:43:42;;;;;;;;;30.25;23.50;;;;;5.57;61.70;102593.91;5022240;28;47247;-72
2022/01/16 09:46:08;;;;;;;;;22.75;21.00;;;;;5.69;62.74;102600.31;5015649;28;46261;-72
2022/01/16 09:48:34;;;;;;;;;23.00;22.50;;;;;5.63;62.37;102590.50;5032550;28;45610;-72
2022/01/16 09:50:59;;;;;;;;;24.50;22.75;;;;;5.67;61.76;102604.69;5012539;28;45413;-71
2022/01/16 09:53:25;;;;;;;;;24.75;20.50;;;;;5.61;61.75;102592.22;5015996;28;45743;-71
2022/01/16 09:55:51;;;;;;;;;19.50;19.50;;;;;5.68;62.47;102601.16;5032221;28;48154;-71
2022/01/16 09:58:17;;;;;;;;;18.75;17.75;;;;;5.69;61.55;102608.25;5006064;28;45402;-71
2022/01/16 10:00:42;;;;;;;;;19.25;18.75;;;;;5.51;62.11;102580.59;5011309;28;46478;-71
2022/01/16 10:03:09;;;;;;;;;20.25;17.75;;;;;5.62;61.78;102595.78;5015946;28;45399;-71
2022/01/16 10:05:37;;;;;;;;;22.50;21.75;;;;;5.68;61.23;102606.47;5018142;28;47258;-72
2022/01/16 10:08:08;;;;;;;;;21.00;20.75;;;;;5.60;61.60;102585.16;5020100;28;46053;-72
2022/01/16 10:10:44;;;;;;;;;27.25;18.50;;;;;5.51;61.86;102575.28;5021465;28;45288;-72
2022/01/16 10:13:25;;;;;;;;;19.25;17.75;;;;;5.54;61.10;102575.31;5018850;28;45809;-71
2022/01/16 10:15:53;;;;;;;;;17.25;17.25;;;;;5.46;61.54;102550.44;5035961;28;47931;-72
2022/01/16 10:18:35;;;;;;;;;14.25;14.25;;;;;5.74;62.42;102603.94;5020129;28;45586;-72
2022/01/16 10:21:01;;;;;;;;;18.25;17.25;;;;;5.65;61.97;102591.41;5020332;28;45281;-70
2022/01/16 10:23:27;;;;;;;;;19.25;17.75;;;;;5.65;61.72;102595.84;5021271;28;45249;-70
2022/01/16 10:25:52;;;;;;;;;21.25;20.00;;;;;5.62;61.57;102606.38;5020799;28;45835;-70
2022/01/16 10:28:20;;;;;;;;;20.50;20.25;;;;;5.59;62.49;102586.00;5020304;28;45339;-71
2022/01/16 10:30:49;;;;;;;;;20.00;18.50;;;;;5.52;62.10;102573.53;5019674;28;45511;-76
2022/01/16 10:33:17;;;;;;;;;24.50;20.50;;;;;5.71;61.71;102606.53;5018428;28;45615;-72
2022/01/16 10:35:47;;;;;;;;;25.50;19.50;;;;;5.71;61.19;102601.22;5013066;28;45800;-72
2022/01/16 10:38:21;;;;;;;;;19.50;15.75;;;;;5.68;62.10;102583.53;5019620;28;45313;-69
2022/01/16 10:40:50;;;;;;;;;20.25;15.50;;;;;5.82;61.78;102597.00;5014738;28;45539;-71
2022/01/16 10:43:38;;;;;;;;;26.00;19.50;;;;;5.70;62.49;102579.13;5021561;28;45250;-72
2022/01/16 10:46:04;;;;;;;;;27.00;20.00;;;;;5.56;62.01;102564.75;5020505;28;45351;-72
2022/01/16 10:48:32;;;;;;;;;24.00;20.50;;;;;5.81;62.35;102594.31;5020827;28;45378;-72
2022/01/16 10:50:57;;;;;;;;;21.50;19.00;;;;;5.79;62.07;102583.69;5020965;28;45352;-72
2022/01/16 10:53:25;;;;;;;;;25.25;19.00;;;;;5.93;62.07;102607.78;5021448;28;45344;-72
2022/01/16 10:55:53;;;;;;;;;25.00;20.25;;;;;5.91;62.23;102593.59;5020147;28;46035;-72
2022/01/16 10:58:43;;;;;;;;;24.50;19.25;;;;;5.92;62.00;102601.59;5021202;28;45665;-71
2022/01/16 11:01:13;;;;;;;;;26.75;20.50;;;;;5.96;61.93;102599.91;5009490;28;45615;-71
2022/01/16 11:03:46;;;;;;;;;21.50;18.00;;;;;5.98;62.51;102608.81;5020612;28;45285;-72
2022/01/16 11:06:12;;;;;;;;;18.50;17.50;;;;;5.99;62.27;102597.31;5019676;28;46251;-72
2022/01/16 11:08:39;;;;;;;;;24.00;20.75;;;;;6.00;62.05;102595.53;5018898;28;45427;-73
2022/01/16 11:11:07;;;;;;;;;24.75;17.25;;;;;6.08;62.33;102601.88;5019539;28;46960;-75
2022/01/16 11:13:35;;;;;;;;;20.50;20.50;;;;;6.05;61.96;102580.63;5018641;28;45498;-75
2022/01/16 11:16:07;;;;;;;;;19.50;18.25;;;;;6.05;62.31;102599.19;5018666;28;46258;-74
2022/01/16 11:18:35;;;;;;;;;24.50;20.75;;;;;6.12;62.18;102611.66;5013125;28;45392;-75
2022/01/16 11:23:32;;;;;;;;;26.50;23.00;;;;;6.09;61.85;102590.41;5020357;28;45315;-73
2022/01/16 11:26:05;;;;;;;;;30.00;21.75;;;;;6.19;61.72;102599.41;5019628;28;46890;-74
2022/01/16 11:28:31;;;;;;;;;24.25;20.00;;;;;5.91;62.01;102559.16;5019448;28;45383;-76
2022/01/16 11:31:03;;;;;;;;;21.25;19.25;;;;;6.12;62.37;102591.34;5017115;28;45477;-72
2022/01/16 11:33:32;;;;;;;;;23.25;19.25;;;;;6.20;62.63;102598.50;5019060;28;45329;-72
2022/01/16 11:36:00;;;;;;;;;27.50;22.75;;;;;6.21;62.13;102609.16;5019931;28;46006;-72
2022/01/16 11:38:32;;;;;;;;;31.25;21.50;;;;;6.21;61.96;102602.97;5020409;28;45720;-72
2022/01/16 11:41:03;;;;;;;;;19.25;18.25;;;;;6.13;62.25;102586.91;5019984;28;45308;-72
2022/01/16 11:43:37;;;;;;;;;17.75;14.00;;;;;6.23;62.49;102594.19;5015093;28;45525;-72
2022/01/16 11:46:14;;;;;;;;;23.25;21.75;;;;;6.28;61.96;102597.78;5020095;28;45347;-72
2022/01/16 11:48:53;;;;;;;;;26.75;23.50;;;;;6.30;62.48;102605.78;5018459;28;46079;-72
2022/01/16 11:51:38;;;;;;;;;20.50;18.25;;;;;6.30;62.11;102606.66;5019947;28;45335;-72
2022/01/16 11:54:09;;;;;;;;;21.75;17.75;;;;;6.23;62.78;102588.88;5009342;28;45427;-72
2022/01/16 11:56:37;;;;;;;;;21.75;20.00;;;;;6.35;62.38;102606.72;5013638;28;45424;-72
2022/01/16 11:59:11;;;;;;;;;28.50;19.00;;;;;6.38;62.32;102608.53;5019021;28;45466;-72
2022/01/16 12:01:45;;;;;;;;;20.25;19.25;;;;;6.34;62.43;102604.06;5019804;28;45366;-72
2022/01/16 12:04:32;;;;;;;;;23.00;21.25;;;;;6.40;62.54;102609.44;5019794;28;45476;-72
2022/01/16 12:07:12;;;;;;;;;20.25;17.00;;;;;6.40;61.99;102602.38;5009012;28;46112;-72
2022/01/16 12:09:48;;;;;;;;;25.00;17.00;;;;;6.41;62.43;102604.16;5019863;28;45803;-72
2022/01/16 12:12:14;;;;;;;;;24.00;21.50;;;;;6.44;61.99;102611.28;5018031;28;45411;-72
2022/01/16 12:15:05;;;;;;;;;26.50;21.50;;;;;6.38;62.77;102588.22;5018145;28;45804;-72
2022/01/16 12:17:39;;;;;;;;;21.00;20.75;;;;;6.48;61.98;102594.50;5019194;28;45425;-72
2022/01/16 12:20:13;;;;;;;;;22.25;18.25;;;;;6.52;62.33;102582.22;5019744;28;45393;-72
2022/01/16 12:22:44;;;;;;;;;21.00;21.00;;;;;6.54;62.15;102585.78;5019613;28;45296;-72
2022/01/16 12:25:15;;;;;;;;;24.50;20.75;;;;;6.57;62.06;102585.81;5019802;28;45252;-72
2022/01/16 12:27:49;;;;;;;;;25.50;21.50;;;;;6.54;62.00;102576.03;5018712;28;45610;-72
2022/01/16 12:30:35;;;;;;;;;21.25;21.25;;;;;6.51;62.84;102576.00;5019392;28;45444;-72
2022/01/16 12:33:08;;;;;;;;;23.00;21.75;;;;;6.53;61.84;102568.94;5009020;28;45290;-72
2022/01/16 12:35:39;;;;;;;;;25.00;20.33;;;;;6.56;62.67;102581.38;5019481;28;45411;-72
2022/01/16 12:38:12;;;;;;;;;30.50;24.75;;;;;6.56;62.53;102591.97;5018193;28;48452;-72
2022/01/16 12:40:39;;;;;;;;;25.50;25.00;;;;;6.45;61.91;102565.31;5017674;28;45424;-72
2022/01/16 12:43:08;;;;;;;;;22.25;20.75;;;;;6.43;62.78;102565.28;5018302;28;45356;-72
2022/01/16 12:45:39;;;;;;;;;25.25;20.75;;;;;6.54;62.33;102568.06;5019371;28;45486;-72
2022/01/16 12:48:06;;;;;;;;;29.00;23.00;;;;;6.62;62.63;102590.31;5019136;28;45493;-72
2022/01/16 12:50:32;;;;;;;;;25.75;22.75;;;;;6.45;61.96;102552.06;5005892;28;45538;-72
2022/01/16 12:52:57;;;;;;;;;20.75;18.50;;;;;6.60;62.51;102573.47;5019244;28;45512;-72
2022/01/16 12:55:30;;;;;;;;;28.25;21.25;;;;;6.55;62.92;102561.91;5014146;28;45328;-74
2022/01/16 12:58:18;;;;;;;;;22.50;22.50;;;;;6.66;62.84;102577.97;5004051;28;45775;-75
2022/01/16 13:01:04;;;;;;;;;28.25;23.25;;;;;6.22;62.98;102499.56;5015132;28;45589;-72
2022/01/16 13:03:32;;;;;;;;;23.50;21.50;;;;;6.68;62.39;102577.13;5012473;28;45534;-73
2022/01/16 13:06:25;;;;;;;;;30.75;23.50;;;;;6.71;62.04;102583.34;5013401;28;45606;-73
2022/01/16 13:08:58;;;;;;;;;28.50;23.00;;;;;6.63;62.47;102569.97;5019732;28;48024;-72
2022/01/16 13:11:29;;;;;;;;;23.50;20.50;;;;;6.69;62.44;102578.00;5004455;28;46007;-71
2022/01/16 13:13:54;;;;;;;;;22.00;20.00;;;;;6.72;62.22;102569.22;5009947;28;45475;-76
2022/01/16 13:16:29;;;;;;;;;25.75;21.25;;;;;6.70;62.47;102573.59;5009316;28;45471;-71
2022/01/16 13:18:59;;;;;;;;;26.00;20.25;;;;;6.74;62.65;102586.91;5010169;28;46008;-70
2022/01/16 13:21:32;;;;;;;;;25.25;20.50;;;;;6.68;62.25;102582.44;5019321;28;46123;-71
2022/01/16 13:23:58;;;;;;;;;29.75;26.50;;;;;6.64;62.96;102585.03;5003737;28;45617;-75
2022/01/16 13:26:30;;;;;;;;;22.00;20.50;;;;;6.60;62.80;102578.78;5012439;28;45865;-72
2022/01/16 13:29:06;;;;;;;;;24.75;22.00;;;;;6.77;63.36;102607.31;5002806;28;45878;-72
2022/01/16 13:31:36;;;;;;;;;28.50;23.50;;;;;6.57;63.04;102570.78;5010216;28;45762;-71
2022/01/16 13:34:09;;;;;;;;;27.00;25.00;;;;;6.63;63.53;102586.78;5009568;28;45793;-71
2022/01/16 13:36:35;;;;;;;;;28.75;23.25;;;;;6.75;64.09;102603.72;5006368;28;45604;-81
2022/01/16 13:39:00;;;;;;;;;23.00;23.00;;;;;6.71;63.70;102605.44;5014053;28;47309;-81
2022/01/16 13:41:26;;;;;;;;;32.25;26.50;;;;;6.82;63.27;102611.81;5015924;28;45754;-70
2022/01/16 13:43:51;;;;;;;;;28.75;24.00;;;;;6.78;63.66;102598.47;5017130;28;45451;-70
2022/01/16 13:46:16;;;;;;;;;26.50;23.75;;;;;6.80;63.11;102612.63;5015030;28;45960;-70
2022/01/16 13:48:42;;;;;;;;;27.25;26.25;;;;;6.88;63.29;102615.41;5017120;28;46004;-72
2022/01/16 13:51:07;;;;;;;;;30.25;26.00;;;;;6.90;63.75;102617.22;5017088;28;45773;-71
2022/01/16 13:53:33;;;;;;;;;28.75;24.00;;;;;6.89;63.75;102627.81;5028939;28;45460;-69
2022/01/16 13:56:14;;;;;;;;;27.00;24.67;;;;;6.81;63.33;102607.34;5016560;28;45563;-72
2022/01/16 13:58:47;;;;;;;;;23.50;22.75;;;;;6.83;63.31;102610.03;5016528;28;48270;-75
2022/01/16 14:01:14;;;;;;;;;36.00;29.50;;;;;6.86;63.73;102613.63;5005399;28;45900;-71
2022/01/16 14:03:50;;;;;;;;;34.00;27.00;;;;;6.89;63.23;102618.09;5015251;28;45571;-74
2022/01/16 14:06:16;;;;;;;;;32.75;28.25;;;;;6.83;63.84;102604.72;5016767;28;45827;-75
2022/01/16 14:08:57;;;;;;;;;31.25;28.75;;;;;6.92;63.91;102622.56;5017172;28;46205;-75
2022/01/16 14:11:27;;;;;;;;;26.00;23.75;;;;;6.88;63.83;102600.34;5017003;28;45795;-74
2022/01/16 14:13:58;;;;;;;;;27.00;24.50;;;;;6.94;63.40;102604.88;5017742;28;45832;-74
2022/01/16 14:16:43;;;;;;;;;28.75;25.50;;;;;6.93;63.70;102606.63;5017608;28;45528;-74
2022/01/16 14:19:13;;;;;;;;;33.00;29.50;;;;;6.86;64.00;102592.38;5004005;28;46075;-75
2022/01/16 14:21:59;;;;;;;;;32.50;30.75;;;;;6.96;63.76;102611.97;5018258;28;45526;-76
2022/01/16 14:24:25;;;;;;;;;27.00;26.00;;;;;6.89;64.37;102598.63;5020380;28;45244;-75
2022/01/16 14:26:55;;;;;;;;;31.50;26.50;;;;;7.00;64.21;102610.25;5021181;28;45482;-75
2022/01/16 14:29:22;;;;;;;;;24.50;22.25;;;;;6.95;63.92;102603.97;5021388;28;45372;-75
2022/01/16 14:31:50;;;;;;;;;31.75;26.50;;;;;6.93;63.95;102609.28;5020970;28;45314;-76
2022/01/16 14:34:17;;;;;;;;;34.75;28.50;;;;;6.93;64.60;102619.88;5036371;28;45341;-76
2022/01/16 14:36:43;;;;;;;;;30.00;25.75;;;;;6.89;64.35;102598.63;5020811;28;45569;-76
2022/01/16 14:39:09;;;;;;;;;27.25;24.50;;;;;7.03;64.19;102611.19;5021107;28;46291;-76
2022/01/16 14:41:37;;;;;;;;;32.25;26.25;;;;;7.07;63.55;102605.91;5020999;28;45634;-76
2022/01/16 14:44:04;;;;;;;;;27.50;23.00;;;;;7.09;63.78;102609.47;5020505;28;45268;-76
2022/01/16 14:46:30;;;;;;;;;26.00;24.25;;;;;7.04;64.33;102590.84;5021179;28;45281;-75
2022/01/16 14:48:57;;;;;;;;;27.50;24.00;;;;;7.12;64.44;102605.09;5015525;28;45458;-75
2022/01/16 14:51:22;;;;;;;;;30.00;26.50;;;;;7.14;64.22;102606.00;5019119;28;45769;-76
2022/01/16 14:53:48;;;;;;;;;31.50;30.75;;;;;7.02;63.60;102588.16;5036435;28;45406;-76
2022/01/16 14:56:14;;;;;;;;;25.50;21.50;;;;;7.13;64.17;102603.31;5016624;28;45677;-76
2022/01/16 14:58:42;;;;;;;;;30.00;27.25;;;;;7.04;64.26;102591.72;5019338;28;47471;-76
2022/01/16 15:01:10;;;;;;;;;30.50;25.75;;;;;6.98;64.22;102590.75;5014347;28;45479;-76
2022/01/16 15:03:38;;;;;;;;;28.00;24.00;;;;;7.08;63.98;102594.41;5020980;28;45536;-76
2022/01/16 15:06:07;;;;;;;;;26.75;26.75;;;;;7.08;63.54;102594.41;5019129;28;45573;-76
2022/01/16 15:08:35;;;;;;;;;28.25;27.00;;;;;7.10;64.45;102590.91;5035947;28;47681;-76
2022/01/16 15:11:01;;;;;;;;;31.00;28.00;;;;;7.20;64.30;102607.81;5020530;28;45880;-76
2022/01/16 15:13:27;;;;;;;;;29.00;25.00;;;;;7.21;64.34;102604.31;5036033;28;45399;-76
2022/01/16 15:15:53;;;;;;;;;28.25;25.50;;;;;7.23;63.73;102607.88;5020223;28;45429;-76
2022/01/16 15:18:20;;;;;;;;;31.75;30.75;;;;;7.25;63.69;102616.75;5020035;28;46322;-76
2022/01/16 15:20:48;;;;;;;;;31.00;27.75;;;;;7.20;64.05;102603.44;5020396;28;45218;-76
2022/01/16 15:23:13;;;;;;;;;25.75;25.50;;;;;7.14;63.73;102591.84;5020584;28;45480;-75
2022/01/16 15:25:39;;;;;;;;;38.25;34.75;;;;;7.19;64.18;102600.75;5019859;28;45331;-76
2022/01/16 15:28:04;;;;;;;;;45.00;37.00;;;;;7.31;64.18;102615.94;5020294;28;45217;-76
2022/01/16 15:30:30;;;;;;;;;35.50;35.25;;;;;7.30;63.99;102614.13;5020289;28;45186;-76
2022/01/16 15:32:55;;;;;;;;;43.00;37.00;;;;;7.35;63.84;102620.38;5020190;28;45415;-75
2022/01/16 15:35:22;;;;;;;;;40.00;37.00;;;;;7.34;64.29;102624.81;5020364;28;45712;-75
2022/01/16 15:37:49;;;;;;;;;31.00;31.00;;;;;7.28;64.25;102613.22;5020105;28;45525;-76
2022/01/16 15:40:14;;;;;;;;;36.00;32.75;;;;;7.35;64.53;102617.72;5020136;28;45675;-76